< < Back
Terminal Aerodrome Forecast


Current Version              Previous Versions:   1  2  3  4  5  6  7  8  9  

Terminal Aerodrome Forecast

662
FTUS42 KILM 021100
TAFILM
TAF
KILM 021140Z 0212/0312 25007KT P6SM SCT015
     FM021800 17008KT P6SM VCTS SCT035CB SCT090
     FM022100 19012KT P6SM SCT050 SCT090 BKN250
     FM030000 21006KT P6SM SCT250
     FM030800 VRB03KT P6SM SCT015=

Latest METAR

095
SAUS70 KWBC 021200 RRM
MTRILM
METAR KILM 021153Z AUTO 26007KT 10SM CLR 26/25 A3010 RMK AO2 SLP191
T02610250 10261 20244 53012


USA.gov is the U.S. government's official web portal to all federal, state and local government web resources and services.